sensor_id;sensor_type;location;lat;lon;timestamp;pressure;altitude;pressure_sealevel;temperature;humidity
49377;BME280;35253;34.688;33.040;2023-06-14T00:00:52;100230.91;;;24.31;100.00
49377;BME280;35253;34.688;33.040;2023-06-14T00:03:19;100229.31;;;24.21;100.00
49377;BME280;35253;34.688;33.040;2023-06-14T00:05:47;100231.47;;;24.26;100.00
49377;BME280;35253;34.688;33.040;2023-06-14T00:08:14;100225.63;;;24.29;100.00
49377;BME280;35253;34.688;33.040;2023-06-14T00:10:40;100239.53;;;24.34;100.00
49377;BME280;35253;34.688;33.040;2023-06-14T00:13:08;100241.97;;;24.29;100.00
49377;BME280;35253;34.688;33.040;2023-06-14T00:15:34;100234.25;;;24.33;100.00
49377;BME280;35253;34.688;33.040;2023-06-14T00:18:00;100239.53;;;24.34;100.00
49377;BME280;35253;34.688;33.040;2023-06-14T00:20:27;100249.41;;;24.35;100.00
49377;BME280;35253;34.688;33.040;2023-06-14T00:22:53;100249.41;;;24.35;100.00
49377;BME280;35253;34.688;33.040;2023-06-14T00:25:22;100245.84;;;24.35;100.00
49377;BME280;35253;34.688;33.040;2023-06-14T00:27:51;100251.06;;;24.36;100.00
49377;BME280;35253;34.688;33.040;2023-06-14T00:30:16;100251.75;;;24.38;100.00
49377;BME280;35253;34.688;33.040;2023-06-14T00:32:43;100250.03;;;24.37;100.00
49377;BME280;35253;34.688;33.040;2023-06-14T00:35:09;100246.28;;;24.38;100.00
49377;BME280;35253;34.688;33.040;2023-06-14T00:37:35;100245.25;;;24.39;100.00
49377;BME280;35253;34.688;33.040;2023-06-14T00:40:01;100242.25;;;24.34;100.00
49377;BME280;35253;34.688;33.040;2023-06-14T00:42:28;100238.97;;;24.24;100.00
49377;BME280;35253;34.688;33.040;2023-06-14T00:44:54;100232.03;;;24.21;100.00
49377;BME280;35253;34.688;33.040;2023-06-14T00:47:20;100235.50;;;24.30;100.00
49377;BME280;35253;34.688;33.040;2023-06-14T00:49:47;100235.69;;;24.29;100.00
49377;BME280;35253;34.688;33.040;2023-06-14T00:52:17;100230.06;;;24.30;100.00
49377;BME280;35253;34.688;33.040;2023-06-14T00:54:43;100231.25;;;24.28;100.00
49377;BME280;35253;34.688;33.040;2023-06-14T00:57:09;100237.84;;;24.33;100.00
49377;BME280;35253;34.688;33.040;2023-06-14T00:59:44;100227.22;;;24.38;100.00
49377;BME280;35253;34.688;33.040;2023-06-14T01:02:10;100241.88;;;24.37;100.00
49377;BME280;35253;34.688;33.040;2023-06-14T01:04:37;100245.44;;;24.38;100.00
49377;BME280;35253;34.688;33.040;2023-06-14T01:07:15;100245.44;;;24.38;100.00
49377;BME280;35253;34.688;33.040;2023-06-14T01:15:01;100249.78;;;24.17;100.00
49377;BME280;35253;34.688;33.040;2023-06-14T01:17:28;100256.16;;;24.24;100.00
49377;BME280;35253;34.688;33.040;2023-06-14T01:20:02;100262.63;;;24.38;100.00
49377;BME280;35253;34.688;33.040;2023-06-14T01:22:28;100264.69;;;24.36;100.00
49377;BME280;35253;34.688;33.040;2023-06-14T01:24:54;100260.94;;;24.37;100.00
49377;BME280;35253;34.688;33.040;2023-06-14T01:27:24;100257.94;;;24.32;100.00
49377;BME280;35253;34.688;33.040;2023-06-14T01:29:54;100265.09;;;24.33;100.00
49377;BME280;35253;34.688;33.040;2023-06-14T01:32:27;100268.75;;;24.26;100.00
49377;BME280;35253;34.688;33.040;2023-06-14T01:34:53;100270.25;;;24.28;100.00
49377;BME280;35253;34.688;33.040;2023-06-14T01:37:20;100279.00;;;24.23;100.00
49377;BME280;35253;34.688;33.040;2023-06-14T01:39:48;100273.75;;;24.22;100.00
49377;BME280;35253;34.688;33.040;2023-06-14T01:42:17;100275.81;;;24.20;100.00
49377;BME280;35253;34.688;33.040;2023-06-14T01:44:44;100283.31;;;24.18;100.00
49377;BME280;35253;34.688;33.040;2023-06-14T01:47:10;100289.50;;;24.12;100.00
49377;BME280;35253;34.688;33.040;2023-06-14T01:49:38;100284.50;;;23.86;100.00
49377;BME280;35253;34.688;33.040;2023-06-14T01:52:04;100294.19;;;23.51;100.00
49377;BME280;35253;34.688;33.040;2023-06-14T01:54:29;100292.84;;;23.47;100.00
49377;BME280;35253;34.688;33.040;2023-06-14T01:56:56;100296.28;;;23.64;100.00
49377;BME280;35253;34.688;33.040;2023-06-14T01:59:22;100304.25;;;23.65;100.00
49377;BME280;35253;34.688;33.040;2023-06-14T02:01:47;100314.41;;;23.71;100.00
49377;BME280;35253;34.688;33.040;2023-06-14T02:04:13;100305.59;;;23.69;100.00
49377;BME280;35253;34.688;33.040;2023-06-14T02:06:39;100315.81;;;23.67;100.00
49377;BME280;35253;34.688;33.040;2023-06-14T02:09:04;100319.84;;;23.71;100.00
49377;BME280;35253;34.688;33.040;2023-06-14T02:11:30;100324.19;;;23.35;100.00
49377;BME280;35253;34.688;33.040;2023-06-14T02:13:56;100331.63;;;23.18;100.00
49377;BME280;35253;34.688;33.040;2023-06-14T02:16:22;100330.47;;;23.13;100.00
49377;BME280;35253;34.688;33.040;2023-06-14T02:18:48;100320.34;;;23.29;100.00
49377;BME280;35253;34.688;33.040;2023-06-14T02:21:14;100328.75;;;23.43;100.00
49377;BME280;35253;34.688;33.040;2023-06-14T02:23:40;100325.69;;;23.46;100.00
49377;BME280;35253;34.688;33.040;2023-06-14T02:26:05;100319.69;;;23.50;100.00
49377;BME280;35253;34.688;33.040;2023-06-14T02:28:31;100318.28;;;23.54;100.00
49377;BME280;35253;34.688;33.040;2023-06-14T02:30:57;100319.00;;;23.48;100.00
49377;BME280;35253;34.688;33.040;2023-06-14T02:33:23;100317.56;;;23.60;100.00
49377;BME280;35253;34.688;33.040;2023-06-14T02:35:48;100323.78;;;23.69;100.00
49377;BME280;35253;34.688;33.040;2023-06-14T02:38:15;100318.06;;;23.64;100.00
49377;BME280;35253;34.688;33.040;2023-06-14T02:40:41;100312.47;;;23.57;100.00
49377;BME280;35253;34.688;33.040;2023-06-14T02:43:08;100326.31;;;23.70;100.00
49377;BME280;35253;34.688;33.040;2023-06-14T02:45:33;100315.97;;;23.66;100.00
49377;BME280;35253;34.688;33.040;2023-06-14T02:47:59;100315.81;;;23.67;100.00
49377;BME280;35253;34.688;33.040;2023-06-14T02:50:25;100313.69;;;23.55;100.00
49377;BME280;35253;34.688;33.040;2023-06-14T02:52:53;100307.50;;;23.61;100.00
49377;BME280;35253;34.688;33.040;2023-06-14T02:55:21;100302.91;;;23.61;100.00
49377;BME280;35253;34.688;33.040;2023-06-14T02:57:47;100304.31;;;23.57;100.00
49377;BME280;35253;34.688;33.040;2023-06-14T03:00:13;100298.44;;;23.68;100.00
49377;BME280;35253;34.688;33.040;2023-06-14T03:02:39;100300.78;;;23.71;100.00
49377;BME280;35253;34.688;33.040;2023-06-14T03:05:05;100305.22;;;23.72;100.00
49377;BME280;35253;34.688;33.040;2023-06-14T03:07:32;100300.91;;;23.78;100.00
49377;BME280;35253;34.688;33.040;2023-06-14T03:09:58;100308.88;;;23.79;100.00
49377;BME280;35253;34.688;33.040;2023-06-14T03:12:23;100311.50;;;23.88;100.00
49377;BME280;35253;34.688;33.040;2023-06-14T03:14:50;100311.47;;;23.96;100.00
49377;BME280;35253;34.688;33.040;2023-06-14T03:17:17;100314.81;;;23.98;100.00
49377;BME280;35253;34.688;33.040;2023-06-14T03:19:43;100322.25;;;23.66;100.00
49377;BME280;35253;34.688;33.040;2023-06-14T03:22:08;100318.81;;;23.27;100.00
49377;BME280;35253;34.688;33.040;2023-06-14T03:24:34;100315.19;;;23.34;100.00
49377;BME280;35253;34.688;33.040;2023-06-14T03:27:02;100317.84;;;23.65;100.00
49377;BME280;35253;34.688;33.040;2023-06-14T03:29:28;100318.75;;;23.80;100.00
49377;BME280;35253;34.688;33.040;2023-06-14T03:32:12;100322.91;;;24.06;100.00
49377;BME280;35253;34.688;33.040;2023-06-14T03:34:37;100319.34;;;23.91;100.00
49377;BME280;35253;34.688;33.040;2023-06-14T03:37:06;100319.53;;;24.04;100.00
49377;BME280;35253;34.688;33.040;2023-06-14T03:39:32;100317.25;;;24.30;100.00
49377;BME280;35253;34.688;33.040;2023-06-14T03:41:58;100322.31;;;24.48;100.00
49377;BME280;35253;34.688;33.040;2023-06-14T03:44:26;100318.16;;;24.52;100.00
49377;BME280;35253;34.688;33.040;2023-06-14T03:46:52;100327.09;;;24.60;100.00
49377;BME280;35253;34.688;33.040;2023-06-14T03:49:17;100331.00;;;24.73;100.00
49377;BME280;35253;34.688;33.040;2023-06-14T03:51:44;100326.47;;;24.80;100.00
49377;BME280;35253;34.688;33.040;2023-06-14T03:54:10;100333.06;;;24.70;100.00
49377;BME280;35253;34.688;33.040;2023-06-14T03:56:36;100328.84;;;24.83;100.00
49377;BME280;35253;34.688;33.040;2023-06-14T03:59:01;100327.47;;;24.87;100.00
49377;BME280;35253;34.688;33.040;2023-06-14T04:01:28;100327.41;;;25.01;100.00
49377;BME280;35253;34.688;33.040;2023-06-14T04:03:57;100329.81;;;25.11;100.00
49377;BME280;35253;34.688;33.040;2023-06-14T04:06:23;100316.56;;;25.08;100.00
49377;BME280;35253;34.688;33.040;2023-06-14T04:08:51;100325.66;;;25.15;100.00
49377;BME280;35253;34.688;33.040;2023-06-14T04:11:17;100325.81;;;25.28;100.00
49377;BME280;35253;34.688;33.040;2023-06-14T04:13:44;100331.75;;;25.32;100.00
49377;BME280;35253;34.688;33.040;2023-06-14T04:16:09;100337.56;;;25.29;100.00
49377;BME280;35253;34.688;33.040;2023-06-14T04:18:35;100332.97;;;25.29;100.00
49377;BME280;35253;34.688;33.040;2023-06-14T04:21:01;100338.56;;;25.42;100.00
49377;BME280;35253;34.688;33.040;2023-06-14T04:23:26;100331.78;;;25.38;100.00
49377;BME280;35253;34.688;33.040;2023-06-14T04:25:53;100340.44;;;25.42;100.00
49377;BME280;35253;34.688;33.040;2023-06-14T04:28:19;100337.09;;;25.61;100.00
49377;BME280;35253;34.688;33.040;2023-06-14T04:30:45;100337.13;;;25.68;100.00
49377;BME280;35253;34.688;33.040;2023-06-14T04:33:12;100338.22;;;25.52;100.00
49377;BME280;35253;34.688;33.040;2023-06-14T04:35:39;100331.75;;;25.74;100.00
49377;BME280;35253;34.688;33.040;2023-06-14T04:38:06;100335.50;;;25.52;100.00
49377;BME280;35253;34.688;33.040;2023-06-14T04:40:35;100341.16;;;25.50;100.00
49377;BME280;35253;34.688;33.040;2023-06-14T04:43:11;100332.00;;;25.79;100.00
49377;BME280;35253;34.688;33.040;2023-06-14T04:45:40;100339.63;;;25.84;100.00
49377;BME280;35253;34.688;33.040;2023-06-14T04:48:10;100337.41;;;25.73;100.00
49377;BME280;35253;34.688;33.040;2023-06-14T04:50:35;100351.97;;;25.80;100.00
49377;BME280;35253;34.688;33.040;2023-06-14T04:53:01;100342.72;;;25.81;100.00
49377;BME280;35253;34.688;33.040;2023-06-14T04:55:28;100346.50;;;25.80;100.00
49377;BME280;35253;34.688;33.040;2023-06-14T04:57:53;100343.84;;;25.44;100.00
49377;BME280;35253;34.688;33.040;2023-06-14T05:00:20;100346.94;;;25.41;100.00
49377;BME280;35253;34.688;33.040;2023-06-14T05:02:46;100340.03;;;25.24;100.00
49377;BME280;35253;34.688;33.040;2023-06-14T05:05:14;100345.19;;;25.76;100.00
49377;BME280;35253;34.688;33.040;2023-06-14T05:07:41;100344.25;;;25.90;100.00
49377;BME280;35253;34.688;33.040;2023-06-14T05:10:07;100351.53;;;25.55;100.00
49377;BME280;35253;34.688;33.040;2023-06-14T05:12:32;100358.34;;;25.66;100.00
49377;BME280;35253;34.688;33.040;2023-06-14T05:14:59;100355.78;;;25.43;100.00
49377;BME280;35253;34.688;33.040;2023-06-14T05:17:25;100352.47;;;25.47;100.00
49377;BME280;35253;34.688;33.040;2023-06-14T05:19:53;100358.19;;;25.31;100.00
49377;BME280;35253;34.688;33.040;2023-06-14T05:22:21;100361.00;;;25.59;100.00
49377;BME280;35253;34.688;33.040;2023-06-14T05:24:47;100367.59;;;25.65;100.00
49377;BME280;35253;34.688;33.040;2023-06-14T05:27:13;100370.41;;;25.99;100.00
49377;BME280;35253;34.688;33.040;2023-06-14T05:29:39;100368.97;;;26.03;100.00
49377;BME280;35253;34.688;33.040;2023-06-14T05:32:05;100372.56;;;26.31;100.00
49377;BME280;35253;34.688;33.040;2023-06-14T05:34:31;100376.53;;;26.57;100.00
49377;BME280;35253;34.688;33.040;2023-06-14T05:36:57;100379.56;;;26.75;100.00
49377;BME280;35253;34.688;33.040;2023-06-14T05:39:23;100374.13;;;26.81;100.00
49377;BME280;35253;34.688;33.040;2023-06-14T05:41:49;100379.59;;;26.40;100.00
49377;BME280;35253;34.688;33.040;2023-06-14T05:44:15;100385.91;;;26.82;100.00
49377;BME280;35253;34.688;33.040;2023-06-14T05:46:41;100384.03;;;26.48;100.00
49377;BME280;35253;34.688;33.040;2023-06-14T05:49:06;100391.22;;;26.21;100.00
49377;BME280;35253;34.688;33.040;2023-06-14T05:51:32;100403.00;;;26.22;100.00
49377;BME280;35253;34.688;33.040;2023-06-14T05:53:59;100397.09;;;25.97;100.00
49377;BME280;35253;34.688;33.040;2023-06-14T05:56:25;100397.34;;;25.81;100.00
49377;BME280;35253;34.688;33.040;2023-06-14T05:58:51;100402.81;;;26.23;100.00
49377;BME280;35253;34.688;33.040;2023-06-14T06:01:17;100403.03;;;26.07;100.00
49377;BME280;35253;34.688;33.040;2023-06-14T06:03:43;100401.13;;;25.80;100.00
49377;BME280;35253;34.688;33.040;2023-06-14T06:06:12;100408.00;;;25.76;100.00
49377;BME280;35253;34.688;33.040;2023-06-14T06:08:38;100401.97;;;25.80;100.00
49377;BME280;35253;34.688;33.040;2023-06-14T06:11:03;100405.91;;;25.99;100.00
49377;BME280;35253;34.688;33.040;2023-06-14T06:13:29;100406.06;;;25.70;100.00
49377;BME280;35253;34.688;33.040;2023-06-14T06:15:55;100411.66;;;25.83;100.00
49377;BME280;35253;34.688;33.040;2023-06-14T06:18:21;100407.28;;;26.10;100.00
49377;BME280;35253;34.688;33.040;2023-06-14T06:20:47;100410.19;;;26.08;100.00
49377;BME280;35253;34.688;33.040;2023-06-14T06:23:13;100429.72;;;26.54;100.00
49377;BME280;35253;34.688;33.040;2023-06-14T06:25:38;100430.75;;;26.81;100.00
49377;BME280;35253;34.688;33.040;2023-06-14T06:28:04;100424.13;;;27.03;100.00
49377;BME280;35253;34.688;33.040;2023-06-14T06:30:30;100428.13;;;26.94;100.00
49377;BME280;35253;34.688;33.040;2023-06-14T06:32:55;100435.63;;;26.30;100.00
49377;BME280;35253;34.688;33.040;2023-06-14T06:35:21;100438.69;;;26.20;100.00
49377;BME280;35253;34.688;33.040;2023-06-14T06:37:47;100435.28;;;26.39;100.00
49377;BME280;35253;34.688;33.040;2023-06-14T06:40:12;100442.91;;;27.06;100.00
49377;BME280;35253;34.688;33.040;2023-06-14T06:42:38;100446.50;;;27.54;100.00
49377;BME280;35253;34.688;33.040;2023-06-14T06:45:05;100431.81;;;27.95;100.00
49377;BME280;35253;34.688;33.040;2023-06-14T06:47:31;100436.06;;;28.23;100.00
49377;BME280;35253;34.688;33.040;2023-06-14T06:49:57;100434.78;;;28.46;100.00
49377;BME280;35253;34.688;33.040;2023-06-14T06:52:22;100442.34;;;27.85;100.00
49377;BME280;35253;34.688;33.040;2023-06-14T06:54:48;100444.84;;;27.79;100.00
49377;BME280;35253;34.688;33.040;2023-06-14T06:57:14;100431.34;;;27.17;100.00
49377;BME280;35253;34.688;33.040;2023-06-14T06:59:40;100428.59;;;27.11;100.00
49377;BME280;35253;34.688;33.040;2023-06-14T07:02:06;100432.41;;;27.16;100.00
49377;BME280;35253;34.688;33.040;2023-06-14T07:04:31;100446.81;;;26.90;100.00
49377;BME280;35253;34.688;33.040;2023-06-14T07:06:57;100441.75;;;26.60;100.00
49377;BME280;35253;34.688;33.040;2023-06-14T07:09:23;100438.41;;;26.92;100.00
49377;BME280;35253;34.688;33.040;2023-06-14T07:11:49;100448.72;;;26.34;100.00
49377;BME280;35253;34.688;33.040;2023-06-14T07:14:15;100446.34;;;26.59;100.00
49377;BME280;35253;34.688;33.040;2023-06-14T07:16:41;100447.78;;;26.83;100.00
49377;BME280;35253;34.688;33.040;2023-06-14T07:19:08;100454.34;;;26.54;100.00
49377;BME280;35253;34.688;33.040;2023-06-14T07:21:34;100448.09;;;26.95;100.00
49377;BME280;35253;34.688;33.040;2023-06-14T07:24:00;100447.09;;;27.02;100.00
49377;BME280;35253;34.688;33.040;2023-06-14T07:26:26;100446.94;;;26.82;100.00
49377;BME280;35253;34.688;33.040;2023-06-14T07:28:52;100445.47;;;27.14;100.00
49377;BME280;35253;34.688;33.040;2023-06-14T07:31:18;100451.84;;;27.34;100.00
49377;BME280;35253;34.688;33.040;2023-06-14T07:33:45;100458.34;;;27.20;100.00
49377;BME280;35253;34.688;33.040;2023-06-14T07:36:11;100446.09;;;27.16;100.00
49377;BME280;35253;34.688;33.040;2023-06-14T07:38:36;100450.38;;;26.91;100.00
49377;BME280;35253;34.688;33.040;2023-06-14T07:41:02;100447.03;;;26.89;100.00
49377;BME280;35253;34.688;33.040;2023-06-14T07:43:28;100450.47;;;27.04;100.00
49377;BME280;35253;34.688;33.040;2023-06-14T07:45:54;100441.25;;;27.18;100.00
49377;BME280;35253;34.688;33.040;2023-06-14T07:48:21;100442.75;;;27.75;100.00
49377;BME280;35253;34.688;33.040;2023-06-14T07:50:46;100445.88;;;27.65;100.00
49377;BME280;35253;34.688;33.040;2023-06-14T07:53:12;100445.09;;;27.98;100.00
49377;BME280;35253;34.688;33.040;2023-06-14T07:55:38;100444.00;;;27.72;100.00
49377;BME280;35253;34.688;33.040;2023-06-14T07:58:07;100452.44;;;27.84;100.00
49377;BME280;35253;34.688;33.040;2023-06-14T08:00:33;100449.00;;;27.56;100.00
49377;BME280;35253;34.688;33.040;2023-06-14T08:02:59;100444.31;;;27.43;100.00
49377;BME280;35253;34.688;33.040;2023-06-14T08:05:25;100444.06;;;27.31;100.00
49377;BME280;35253;34.688;33.040;2023-06-14T08:07:52;100437.31;;;27.27;100.00
49377;BME280;35253;34.688;33.040;2023-06-14T08:10:17;100447.25;;;27.42;100.00
49377;BME280;35253;34.688;33.040;2023-06-14T08:12:43;100443.44;;;27.43;100.00
49377;BME280;35253;34.688;33.040;2023-06-14T08:15:09;100446.44;;;27.48;100.00
49377;BME280;35253;34.688;33.040;2023-06-14T08:17:35;100451.56;;;27.64;100.00
49377;BME280;35253;34.688;33.040;2023-06-14T08:20:02;100440.28;;;27.39;100.00
49377;BME280;35253;34.688;33.040;2023-06-14T08:22:29;100445.72;;;27.93;100.00
49377;BME280;35253;34.688;33.040;2023-06-14T08:24:58;100448.84;;;27.70;100.00
49377;BME280;35253;34.688;33.040;2023-06-14T08:27:23;100451.22;;;28.06;100.00
49377;BME280;35253;34.688;33.040;2023-06-14T08:29:49;100454.50;;;27.69;100.00
49377;BME280;35253;34.688;33.040;2023-06-14T08:32:15;100443.06;;;27.46;100.00
49377;BME280;35253;34.688;33.040;2023-06-14T08:34:41;100451.13;;;27.54;100.00
49377;BME280;35253;34.688;33.040;2023-06-14T08:37:06;100448.19;;;27.62;100.00
49377;BME280;35253;34.688;33.040;2023-06-14T08:39:33;100448.00;;;27.70;100.00
49377;BME280;35253;34.688;33.040;2023-06-14T08:42:01;100459.59;;;27.72;100.00
49377;BME280;35253;34.688;33.040;2023-06-14T08:44:28;100450.31;;;27.60;100.00
49377;BME280;35253;34.688;33.040;2023-06-14T08:46:55;100441.63;;;27.56;100.00
49377;BME280;35253;34.688;33.040;2023-06-14T08:49:24;100445.28;;;27.83;100.00
49377;BME280;35253;34.688;33.040;2023-06-14T08:51:57;100466.09;;;27.58;100.00
49377;BME280;35253;34.688;33.040;2023-06-14T08:54:23;100449.22;;;27.07;100.00
49377;BME280;35253;34.688;33.040;2023-06-14T08:56:49;100446.09;;;27.64;100.00
49377;BME280;35253;34.688;33.040;2023-06-14T08:59:17;100440.03;;;27.27;100.00
49377;BME280;35253;34.688;33.040;2023-06-14T09:01:43;100437.94;;;27.29;100.00
49377;BME280;35253;34.688;33.040;2023-06-14T09:04:10;100437.66;;;27.59;100.00
49377;BME280;35253;34.688;33.040;2023-06-14T09:06:36;100435.00;;;27.24;100.00
49377;BME280;35253;34.688;33.040;2023-06-14T09:09:02;100429.88;;;27.82;100.00
49377;BME280;35253;34.688;33.040;2023-06-14T09:11:30;100434.09;;;27.78;100.00
49377;BME280;35253;34.688;33.040;2023-06-14T09:13:56;100423.34;;;27.70;100.00
49377;BME280;35253;34.688;33.040;2023-06-14T09:16:22;100426.53;;;27.80;100.00
49377;BME280;35253;34.688;33.040;2023-06-14T09:18:47;100437.72;;;27.85;100.00
49377;BME280;35253;34.688;33.040;2023-06-14T09:21:15;100430.31;;;27.79;100.00
49377;BME280;35253;34.688;33.040;2023-06-14T09:23:46;100428.03;;;28.02;100.00
49377;BME280;35253;34.688;33.040;2023-06-14T09:26:17;100424.03;;;27.98;100.00
49377;BME280;35253;34.688;33.040;2023-06-14T09:28:48;100421.06;;;28.00;100.00
49377;BME280;35253;34.688;33.040;2023-06-14T09:31:15;100416.41;;;27.67;100.00
49377;BME280;35253;34.688;33.040;2023-06-14T09:33:46;100423.03;;;27.45;100.00
49377;BME280;35253;34.688;33.040;2023-06-14T09:36:17;100420.19;;;27.73;100.00
49377;BME280;35253;34.688;33.040;2023-06-14T09:39:03;100419.16;;;28.00;100.00
49377;BME280;35253;34.688;33.040;2023-06-14T09:41:33;100409.88;;;27.75;100.00
49377;BME280;35253;34.688;33.040;2023-06-14T09:44:00;100418.72;;;27.70;100.00
49377;BME280;35253;34.688;33.040;2023-06-14T09:46:28;100400.56;;;27.69;100.00
49377;BME280;35253;34.688;33.040;2023-06-14T09:49:00;100408.94;;;27.42;100.00
49377;BME280;35253;34.688;33.040;2023-06-14T09:51:27;100404.72;;;27.46;100.00
49377;BME280;35253;34.688;33.040;2023-06-14T09:53:59;100397.66;;;27.84;100.00
49377;BME280;35253;34.688;33.040;2023-06-14T09:56:35;100400.56;;;27.63;100.00
49377;BME280;35253;34.688;33.040;2023-06-14T09:59:05;100397.25;;;27.94;100.00
49377;BME280;35253;34.688;33.040;2023-06-14T10:01:34;100393.66;;;27.80;100.00
49377;BME280;35253;34.688;33.040;2023-06-14T10:04:05;100403.13;;;27.64;100.00
49377;BME280;35253;34.688;33.040;2023-06-14T10:06:32;100392.41;;;28.02;100.00
49377;BME280;35253;34.688;33.040;2023-06-14T10:09:00;100372.81;;;28.12;100.00
49377;BME280;35253;34.688;33.040;2023-06-14T10:11:26;100392.22;;;28.10;100.00
49377;BME280;35253;34.688;33.040;2023-06-14T10:13:54;100380.41;;;28.16;100.00
49377;BME280;35253;34.688;33.040;2023-06-14T10:16:31;100385.16;;;28.87;100.00
49377;BME280;35253;34.688;33.040;2023-06-14T10:19:24;100376.31;;;28.78;100.00
49377;BME280;35253;34.688;33.040;2023-06-14T10:24:31;100372.31;;;29.19;100.00
49377;BME280;35253;34.688;33.040;2023-06-14T10:26:59;100374.19;;;29.25;100.00
49377;BME280;35253;34.688;33.040;2023-06-14T10:29:28;100379.47;;;28.62;100.00
49377;BME280;35253;34.688;33.040;2023-06-14T10:31:58;100374.22;;;28.54;100.00
49377;BME280;35253;34.688;33.040;2023-06-14T10:34:27;100390.81;;;28.92;100.00
49377;BME280;35253;34.688;33.040;2023-06-14T10:37:08;100379.47;;;28.62;100.00
49377;BME280;35253;34.688;33.040;2023-06-14T10:39:43;100403.13;;;28.50;100.00
49377;BME280;35253;34.688;33.040;2023-06-14T10:42:11;100386.22;;;28.66;100.00
49377;BME280;35253;34.688;33.040;2023-06-14T10:44:41;100387.94;;;28.54;100.00
49377;BME280;35253;34.688;33.040;2023-06-14T10:47:09;100385.81;;;28.62;100.00
49377;BME280;35253;34.688;33.040;2023-06-14T10:49:45;100386.66;;;28.63;100.00
49377;BME280;35253;34.688;33.040;2023-06-14T10:52:20;100388.97;;;29.24;100.00
49377;BME280;35253;34.688;33.040;2023-06-14T10:57:42;100387.47;;;29.28;100.00
49377;BME280;35253;34.688;33.040;2023-06-14T11:00:09;100382.88;;;29.22;100.00
49377;BME280;35253;34.688;33.040;2023-06-14T11:05:57;100402.06;;;29.35;100.00
49377;BME280;35253;34.688;33.040;2023-06-14T11:10:54;100369.63;;;29.05;100.00
49377;BME280;35253;34.688;33.040;2023-06-14T11:13:24;100370.22;;;29.14;100.00
49377;BME280;35253;34.688;33.040;2023-06-14T11:15:50;100370.47;;;29.13;100.00
49377;BME280;35253;34.688;33.040;2023-06-14T11:18:18;100367.88;;;29.31;100.00
49377;BME280;35253;34.688;33.040;2023-06-14T11:20:46;100369.28;;;28.89;100.00
49377;BME280;35253;34.688;33.040;2023-06-14T11:23:11;100364.75;;;28.56;100.00
49377;BME280;35253;34.688;33.040;2023-06-14T11:25:37;100356.22;;;28.84;100.00
49377;BME280;35253;34.688;33.040;2023-06-14T11:28:03;100352.63;;;29.35;100.00
49377;BME280;35253;34.688;33.040;2023-06-14T11:30:29;100355.00;;;29.18;100.00
49377;BME280;35253;34.688;33.040;2023-06-14T11:32:55;100337.81;;;29.36;100.00
49377;BME280;35253;34.688;33.040;2023-06-14T11:35:22;100347.97;;;29.29;100.00
49377;BME280;35253;34.688;33.040;2023-06-14T11:37:49;100329.03;;;29.14;100.00
49377;BME280;35253;34.688;33.040;2023-06-14T11:40:17;100338.09;;;29.21;100.00
49377;BME280;35253;34.688;33.040;2023-06-14T11:42:43;100321.53;;;28.96;100.00
49377;BME280;35253;34.688;33.040;2023-06-14T11:45:10;100323.16;;;29.10;100.00
49377;BME280;35253;34.688;33.040;2023-06-14T11:47:38;100329.97;;;29.01;100.00
49377;BME280;35253;34.688;33.040;2023-06-14T11:50:09;100315.69;;;29.31;100.00
49377;BME280;35253;34.688;33.040;2023-06-14T11:52:38;100330.78;;;29.71;100.00
49377;BME280;35253;34.688;33.040;2023-06-14T11:55:05;100319.53;;;29.54;100.00
49377;BME280;35253;34.688;33.040;2023-06-14T11:57:34;100320.47;;;29.04;100.00
49377;BME280;35253;34.688;33.040;2023-06-14T12:00:03;100328.03;;;29.08;100.00
49377;BME280;35253;34.688;33.040;2023-06-14T12:02:32;100312.41;;;29.47;100.00
49377;BME280;35253;34.688;33.040;2023-06-14T12:05:04;100312.56;;;29.14;100.00
49377;BME280;35253;34.688;33.040;2023-06-14T12:07:37;100318.19;;;28.94;100.00
49377;BME280;35253;34.688;33.040;2023-06-14T12:10:05;100316.16;;;28.70;100.00
49377;BME280;35253;34.688;33.040;2023-06-14T12:12:37;100312.75;;;28.81;100.00
49377;BME280;35253;34.688;33.040;2023-06-14T12:15:07;100315.53;;;28.68;100.00
49377;BME280;35253;34.688;33.040;2023-06-14T12:17:34;100313.19;;;29.16;100.00
49377;BME280;35253;34.688;33.040;2023-06-14T12:20:06;100300.81;;;28.56;100.00
49377;BME280;35253;34.688;33.040;2023-06-14T12:22:59;100302.28;;;28.52;100.00
49377;BME280;35253;34.688;33.040;2023-06-14T12:25:30;100300.66;;;28.38;100.00
49377;BME280;35253;34.688;33.040;2023-06-14T12:27:58;100285.63;;;29.04;100.00
49377;BME280;35253;34.688;33.040;2023-06-14T12:30:24;100294.41;;;28.75;100.00
49377;BME280;35253;34.688;33.040;2023-06-14T12:32:49;100294.84;;;28.72;100.00
49377;BME280;35253;34.688;33.040;2023-06-14T12:35:17;100291.28;;;28.58;100.00
49377;BME280;35253;34.688;33.040;2023-06-14T12:37:45;100294.34;;;28.88;100.00
49377;BME280;35253;34.688;33.040;2023-06-14T12:40:12;100297.31;;;28.87;100.00
49377;BME280;35253;34.688;33.040;2023-06-14T12:42:38;100301.91;;;28.93;100.00
49377;BME280;35253;34.688;33.040;2023-06-14T12:45:04;100282.00;;;28.53;100.00
49377;BME280;35253;34.688;33.040;2023-06-14T12:47:30;100292.19;;;28.46;100.00